JNB weather

OR Tambo International Airport
Johannesburg, Gauteng, South Africa

Public forecast

Using degrees Celsius for public forecast. Weather courtesy of forecast.io.

METAR (pilot weather report)

Retrieved 2019/05/19 07:30 UTC (20 minutes ago):

FAOR 190730Z 01008KT CAVOK 18/03 Q1029 NOSIG

TAF (pilot weather forecast)

Retrieved 2019/05/19 06:00 UTC (2 hours ago):

TAF FAOR 190400Z 1906/2012 VRB03KT CAVOK TX23/1913Z TN09/2005Z BECMG 1906/1908 02006KT FM200700 32006KT CAVOK